createdAt,value
2018-10-03T00:01:06.215Z,11.00
2018-10-03T00:03:34.170Z,11.00
2018-10-03T00:06:02.049Z,11.10
2018-10-03T00:08:29.965Z,11.10
2018-10-03T00:10:57.861Z,11.10
2018-10-03T00:13:25.774Z,11.20
2018-10-03T00:15:53.712Z,11.20
2018-10-03T00:18:21.613Z,11.20
2018-10-03T00:20:49.469Z,11.20
2018-10-03T00:23:17.425Z,11.10
2018-10-03T00:25:45.317Z,11.20
2018-10-03T00:28:13.258Z,11.10
2018-10-03T00:30:41.233Z,11.20
2018-10-03T00:33:09.116Z,11.20
2018-10-03T00:35:37.057Z,11.30
2018-10-03T00:38:05.107Z,11.30
2018-10-03T00:40:33.128Z,11.30
2018-10-03T00:43:01.070Z,11.30
2018-10-03T00:45:28.949Z,11.30
2018-10-03T00:47:56.848Z,11.20
2018-10-03T00:50:24.777Z,11.20
2018-10-03T00:52:52.740Z,11.20
2018-10-03T00:55:20.669Z,11.20
2018-10-03T00:57:48.564Z,11.20
2018-10-03T01:00:16.567Z,11.30
2018-10-03T01:02:44.578Z,11.30
2018-10-03T01:05:12.548Z,11.20
2018-10-03T01:07:40.444Z,11.30
2018-10-03T01:10:08.354Z,11.50
2018-10-03T01:12:36.269Z,11.40
2018-10-03T01:15:04.256Z,11.40
2018-10-03T01:17:32.161Z,11.40
2018-10-03T01:20:00.123Z,11.40
2018-10-03T01:22:28.036Z,11.40
2018-10-03T01:24:55.936Z,11.40
2018-10-03T01:27:23.876Z,11.50
2018-10-03T01:29:51.825Z,11.50
2018-10-03T01:32:19.727Z,11.50
2018-10-03T01:34:47.627Z,11.40
2018-10-03T01:37:15.569Z,11.50
2018-10-03T01:39:43.473Z,11.50
2018-10-03T01:42:11.389Z,11.40
2018-10-03T01:44:39.393Z,11.50
2018-10-03T01:47:07.351Z,11.50
2018-10-03T01:49:35.264Z,11.40
2018-10-03T01:52:03.162Z,11.40
2018-10-03T01:54:31.065Z,11.50
2018-10-03T01:56:59.001Z,11.50
2018-10-03T01:59:26.891Z,11.50
2018-10-03T02:01:54.784Z,11.50
2018-10-03T02:04:22.749Z,11.50
2018-10-03T02:06:50.645Z,11.50
2018-10-03T02:09:18.561Z,11.50
2018-10-03T02:11:46.512Z,11.50
2018-10-03T02:14:14.464Z,11.40
2018-10-03T02:16:42.404Z,11.40
2018-10-03T02:19:10.329Z,11.40
2018-10-03T02:21:38.291Z,11.50
2018-10-03T02:24:06.277Z,11.40
2018-10-03T02:26:34.168Z,11.40
2018-10-03T02:29:03.101Z,11.50
2018-10-03T02:31:31.124Z,11.60
2018-10-03T02:33:59.073Z,11.50
2018-10-03T02:36:26.976Z,11.40
2018-10-03T02:38:54.870Z,11.40
2018-10-03T02:41:22.777Z,11.40
2018-10-03T02:43:50.693Z,11.50
2018-10-03T02:46:18.654Z,11.60
2018-10-03T02:48:46.666Z,11.50
2018-10-03T02:51:14.551Z,11.40
2018-10-03T02:53:42.444Z,11.50
2018-10-03T02:56:10.365Z,11.60
2018-10-03T02:58:38.248Z,11.60
2018-10-03T03:01:06.229Z,11.50
2018-10-03T03:03:34.108Z,11.50
2018-10-03T03:06:02.107Z,11.50
2018-10-03T03:08:30.074Z,11.50
2018-10-03T03:10:58.037Z,11.50
2018-10-03T03:13:25.944Z,11.50
2018-10-03T03:15:53.887Z,11.60
2018-10-03T03:18:21.723Z,11.50
2018-10-03T03:20:49.677Z,11.40
2018-10-03T03:23:17.680Z,11.50
2018-10-03T03:25:45.539Z,11.40
2018-10-03T03:28:13.457Z,11.50
2018-10-03T03:30:41.391Z,11.50
2018-10-03T03:33:09.341Z,11.50
2018-10-03T03:35:37.301Z,11.60
2018-10-03T03:38:05.248Z,11.50
2018-10-03T03:40:33.139Z,11.50
2018-10-03T03:43:01.079Z,11.60
2018-10-03T03:45:29.117Z,11.50
2018-10-03T03:47:56.997Z,11.50
2018-10-03T03:50:24.948Z,11.50
2018-10-03T03:52:52.849Z,11.50
2018-10-03T03:55:20.785Z,11.50
2018-10-03T03:57:48.732Z,11.50
2018-10-03T04:00:16.711Z,11.50
2018-10-03T04:02:44.673Z,11.40
2018-10-03T04:05:12.582Z,11.50
2018-10-03T04:07:47.249Z,11.50
2018-10-03T04:10:15.195Z,11.60
2018-10-03T04:12:43.099Z,11.50
2018-10-03T04:15:11.042Z,11.50
2018-10-03T04:17:38.956Z,11.50
2018-10-03T04:20:06.918Z,11.50
2018-10-03T04:22:34.800Z,11.50
2018-10-03T04:25:02.810Z,11.60
2018-10-03T04:27:30.749Z,11.50
2018-10-03T04:29:58.643Z,11.50
2018-10-03T04:32:26.712Z,11.50
2018-10-03T04:34:54.576Z,11.40
2018-10-03T04:37:22.483Z,11.40
2018-10-03T04:39:50.397Z,11.50
2018-10-03T04:42:18.428Z,11.50
2018-10-03T04:44:46.332Z,11.50
2018-10-03T04:47:14.258Z,11.60
2018-10-03T04:49:42.127Z,11.50
2018-10-03T04:52:10.051Z,11.50
2018-10-03T04:54:38.114Z,11.60
2018-10-03T04:57:06.013Z,11.70
2018-10-03T04:59:33.951Z,11.60
2018-10-03T05:02:01.960Z,11.50
2018-10-03T05:04:29.826Z,11.50
2018-10-03T05:06:57.744Z,11.50
2018-10-03T05:09:25.645Z,11.50
2018-10-03T05:11:53.589Z,11.60
2018-10-03T05:14:21.473Z,11.60
2018-10-03T05:16:49.439Z,11.60
2018-10-03T05:19:17.318Z,11.70
2018-10-03T05:21:45.236Z,11.70
2018-10-03T05:24:13.231Z,11.70
2018-10-03T05:26:41.162Z,11.60
2018-10-03T05:29:09.139Z,11.60
2018-10-03T05:31:37.080Z,11.60
2018-10-03T05:34:05.074Z,11.70
2018-10-03T05:36:33.014Z,11.80
2018-10-03T05:39:00.922Z,11.80
2018-10-03T05:41:28.862Z,11.70
2018-10-03T05:43:57.689Z,11.80
2018-10-03T05:46:25.609Z,11.80
2018-10-03T05:48:53.494Z,11.80
2018-10-03T05:51:21.433Z,11.70
2018-10-03T05:53:49.328Z,11.70
2018-10-03T05:56:17.269Z,11.80
2018-10-03T05:58:45.191Z,11.80
2018-10-03T06:01:13.157Z,11.80
2018-10-03T06:03:41.174Z,11.80
2018-10-03T06:06:09.074Z,11.70
2018-10-03T06:08:37.015Z,11.80
2018-10-03T06:11:05.229Z,11.70
2018-10-03T06:13:33.217Z,11.80
2018-10-03T06:16:01.254Z,11.80
2018-10-03T06:18:29.314Z,11.90
2018-10-03T06:20:57.236Z,12.00
2018-10-03T06:23:25.125Z,11.90
2018-10-03T06:25:53.014Z,12.00
2018-10-03T06:28:20.996Z,12.00
2018-10-03T06:30:48.893Z,12.10
2018-10-03T06:33:16.908Z,12.10
2018-10-03T06:35:44.845Z,12.20
2018-10-03T06:38:12.773Z,12.20
2018-10-03T06:40:40.760Z,12.20
2018-10-03T06:43:08.738Z,12.20
2018-10-03T06:45:36.765Z,12.20
2018-10-03T06:48:04.681Z,12.30
2018-10-03T06:50:32.595Z,12.30
2018-10-03T06:53:00.543Z,12.40
2018-10-03T06:55:28.477Z,12.40
2018-10-03T06:57:56.421Z,12.40
2018-10-03T07:00:24.373Z,12.50
2018-10-03T07:02:52.350Z,12.50
2018-10-03T07:05:20.283Z,12.50
2018-10-03T07:07:48.220Z,12.60
2018-10-03T07:10:16.226Z,12.60
2018-10-03T07:12:44.113Z,12.70
2018-10-03T07:15:12.170Z,12.60
2018-10-03T07:17:40.134Z,12.60
2018-10-03T07:20:08.198Z,12.80
2018-10-03T07:22:37.102Z,12.80
2018-10-03T07:25:05.105Z,12.70
2018-10-03T07:27:33.054Z,12.80
2018-10-03T07:30:00.997Z,12.90
2018-10-03T07:32:30.006Z,12.90
2018-10-03T07:34:57.882Z,13.00
2018-10-03T07:37:25.921Z,13.00
2018-10-03T07:39:53.866Z,12.90
2018-10-03T07:42:21.796Z,13.00
2018-10-03T07:44:50.232Z,13.00
2018-10-03T07:47:18.207Z,13.00
2018-10-03T07:49:46.072Z,13.00
2018-10-03T07:52:14.050Z,13.10
2018-10-03T07:54:42.050Z,13.00
2018-10-03T07:57:10.040Z,13.00
2018-10-03T07:59:38.013Z,13.00
2018-10-03T08:02:05.933Z,13.00
2018-10-03T08:04:33.789Z,13.00
2018-10-03T08:07:01.682Z,13.00
2018-10-03T08:09:29.631Z,13.00
2018-10-03T08:11:57.512Z,13.10
2018-10-03T08:14:25.452Z,13.10
2018-10-03T08:16:53.417Z,13.10
2018-10-03T08:19:21.327Z,13.20
2018-10-03T08:21:49.224Z,13.10
2018-10-03T08:24:17.165Z,13.10
2018-10-03T08:26:45.045Z,13.20
2018-10-03T08:29:13.063Z,13.30
2018-10-03T08:31:40.998Z,13.30
2018-10-03T08:34:08.948Z,13.30
2018-10-03T08:36:36.916Z,13.40
2018-10-03T08:39:07.642Z,13.40
2018-10-03T08:41:35.592Z,13.40
2018-10-03T08:44:03.596Z,13.30
2018-10-03T08:46:31.510Z,13.40
2018-10-03T08:48:59.490Z,13.50
2018-10-03T08:51:27.450Z,13.40
2018-10-03T08:53:55.418Z,13.50
2018-10-03T08:56:23.381Z,13.60
2018-10-03T08:58:51.321Z,13.60
2018-10-03T09:01:19.260Z,13.50
2018-10-03T09:03:47.340Z,13.50
2018-10-03T09:06:15.271Z,13.50
2018-10-03T09:08:43.246Z,13.60
2018-10-03T09:11:11.204Z,13.60
2018-10-03T09:13:39.157Z,13.60
2018-10-03T09:16:07.103Z,13.60
2018-10-03T09:18:35.033Z,13.60
2018-10-03T09:21:03.039Z,13.60
2018-10-03T09:23:30.977Z,13.60
2018-10-03T09:25:58.916Z,13.60
2018-10-03T09:28:26.959Z,13.60
2018-10-03T09:30:54.880Z,13.70
2018-10-03T09:33:22.797Z,13.60
2018-10-03T09:35:50.814Z,13.60
2018-10-03T09:38:18.730Z,13.60
2018-10-03T09:40:46.947Z,13.60
2018-10-03T09:43:14.850Z,13.60
2018-10-03T09:45:42.934Z,13.60
2018-10-03T09:48:10.929Z,13.50
2018-10-03T09:50:38.860Z,13.40
2018-10-03T09:53:06.837Z,13.40
2018-10-03T09:55:34.806Z,13.40
2018-10-03T09:58:02.718Z,13.40
2018-10-03T10:00:36.276Z,13.50
2018-10-03T10:03:04.277Z,13.50
2018-10-03T10:05:32.256Z,13.60
2018-10-03T10:08:00.216Z,13.70
2018-10-03T10:10:28.191Z,13.70
2018-10-03T10:12:56.142Z,13.70
2018-10-03T10:15:24.134Z,13.70
2018-10-03T10:17:52.049Z,13.80
2018-10-03T10:20:20.053Z,13.90
2018-10-03T10:22:47.983Z,14.00
2018-10-03T10:25:15.955Z,14.00
2018-10-03T10:27:43.902Z,14.10
2018-10-03T10:30:11.880Z,14.40
2018-10-03T10:32:39.906Z,14.40
2018-10-03T10:35:07.943Z,14.50
2018-10-03T10:37:36.075Z,14.50
2018-10-03T10:40:04.204Z,14.50
2018-10-03T10:42:32.116Z,14.60
2018-10-03T10:45:00.023Z,14.60
2018-10-03T10:47:27.989Z,14.60
2018-10-03T10:49:55.911Z,14.70
2018-10-03T10:52:24.024Z,14.70
2018-10-03T10:54:51.981Z,14.80
2018-10-03T10:57:19.954Z,14.90
2018-10-03T10:59:47.926Z,15.10
2018-10-03T11:02:15.885Z,15.30
2018-10-03T11:04:43.873Z,15.30
2018-10-03T11:07:11.799Z,15.20
2018-10-03T11:09:39.781Z,15.00
2018-10-03T11:12:07.668Z,15.00
2018-10-03T11:14:35.689Z,15.00
2018-10-03T11:17:03.778Z,14.90
2018-10-03T11:19:31.826Z,14.90
2018-10-03T11:21:59.726Z,15.20
2018-10-03T11:24:27.804Z,15.40
2018-10-03T11:26:55.740Z,15.50
2018-10-03T11:29:23.687Z,15.60
2018-10-03T11:31:51.650Z,15.70
2018-10-03T11:34:19.577Z,15.90
2018-10-03T11:36:47.513Z,15.90
2018-10-03T11:39:15.444Z,16.00
2018-10-03T11:41:43.399Z,15.90
2018-10-03T11:44:11.300Z,15.80
2018-10-03T11:46:39.265Z,15.80
2018-10-03T11:49:07.269Z,15.80
2018-10-03T11:51:35.200Z,15.80
2018-10-03T11:54:03.158Z,15.70
2018-10-03T11:56:31.055Z,15.80
2018-10-03T11:58:58.974Z,15.80
2018-10-03T12:01:26.886Z,15.90
2018-10-03T12:03:54.822Z,16.00
2018-10-03T12:06:22.873Z,16.00
2018-10-03T12:08:50.857Z,16.10
2018-10-03T12:11:18.768Z,16.00
2018-10-03T12:13:46.845Z,16.00
2018-10-03T12:16:14.725Z,15.90
2018-10-03T12:18:42.704Z,15.90
2018-10-03T12:21:10.608Z,16.00
2018-10-03T12:23:38.564Z,16.10
2018-10-03T12:26:06.648Z,16.20
2018-10-03T12:28:34.611Z,16.20
2018-10-03T12:31:02.545Z,16.20
2018-10-03T12:33:30.486Z,16.10
2018-10-03T12:35:58.589Z,16.00
2018-10-03T12:38:26.603Z,16.20
2018-10-03T12:40:54.517Z,16.20
2018-10-03T12:43:22.425Z,16.20
2018-10-03T12:45:50.301Z,16.30
2018-10-03T12:48:18.229Z,16.50
2018-10-03T12:50:46.214Z,16.50
2018-10-03T12:53:14.192Z,16.60
2018-10-03T12:55:42.357Z,16.70
2018-10-03T12:58:10.255Z,16.60
2018-10-03T13:00:38.302Z,16.60
2018-10-03T13:03:06.261Z,16.50
2018-10-03T13:05:34.253Z,16.50
2018-10-03T13:08:02.229Z,16.50
2018-10-03T13:10:31.364Z,16.50
2018-10-03T13:12:59.262Z,16.40
2018-10-03T13:15:27.157Z,16.30
2018-10-03T13:17:55.093Z,16.30
2018-10-03T13:20:23.241Z,16.30
2018-10-03T13:22:51.329Z,16.30
2018-10-03T13:25:19.203Z,16.40
2018-10-03T13:27:47.193Z,16.40
2018-10-03T13:30:15.149Z,16.40
2018-10-03T13:32:43.025Z,16.40
2018-10-03T13:35:10.947Z,16.50
2018-10-03T13:37:38.916Z,16.60
2018-10-03T13:40:06.877Z,16.60
2018-10-03T13:42:34.875Z,16.60
2018-10-03T13:45:02.823Z,16.60
2018-10-03T13:47:30.777Z,16.70
2018-10-03T13:49:58.765Z,16.80
2018-10-03T13:52:26.689Z,16.90
2018-10-03T13:54:54.610Z,16.90
2018-10-03T13:57:22.529Z,16.90
2018-10-03T13:59:50.461Z,16.90
2018-10-03T14:02:18.464Z,16.80
2018-10-03T14:04:46.403Z,16.80
2018-10-03T14:07:14.322Z,16.80
2018-10-03T14:09:42.240Z,16.90
2018-10-03T14:12:10.126Z,17.00
2018-10-03T14:14:38.069Z,17.00
2018-10-03T14:17:06.009Z,16.90
2018-10-03T14:19:33.965Z,16.80
2018-10-03T14:22:01.944Z,16.70
2018-10-03T14:24:29.988Z,16.60
2018-10-03T14:26:57.932Z,16.60
2018-10-03T14:29:25.907Z,16.50
2018-10-03T14:31:53.806Z,16.50
2018-10-03T14:34:21.809Z,16.40
2018-10-03T14:36:49.760Z,16.40
2018-10-03T14:39:17.645Z,16.30
2018-10-03T14:41:45.594Z,16.20
2018-10-03T14:44:13.508Z,16.20
2018-10-03T14:46:41.462Z,16.20
2018-10-03T14:49:09.389Z,16.20
2018-10-03T14:51:37.309Z,16.20
2018-10-03T14:54:05.285Z,16.20
2018-10-03T14:56:33.254Z,16.20
2018-10-03T14:59:01.249Z,16.30
2018-10-03T15:01:29.183Z,16.30
2018-10-03T15:03:57.121Z,16.40
2018-10-03T15:06:25.033Z,16.50
2018-10-03T15:08:52.926Z,16.70
2018-10-03T15:11:20.904Z,16.80
2018-10-03T15:13:48.832Z,16.90
2018-10-03T15:16:16.744Z,16.90
2018-10-03T15:18:44.782Z,16.90
2018-10-03T15:21:12.745Z,16.80
2018-10-03T15:23:40.736Z,16.80
2018-10-03T15:26:08.684Z,16.80
2018-10-03T15:28:36.661Z,16.70
2018-10-03T15:31:04.546Z,16.60
2018-10-03T15:33:32.511Z,16.60
2018-10-03T15:36:00.438Z,16.50
2018-10-03T15:38:28.363Z,16.40
2018-10-03T15:40:56.302Z,16.30
2018-10-03T15:43:24.222Z,16.30
2018-10-03T15:45:52.117Z,16.20
2018-10-03T15:48:20.048Z,16.10
2018-10-03T15:50:48.116Z,16.20
2018-10-03T15:53:22.692Z,16.20
2018-10-03T15:55:50.697Z,16.20
2018-10-03T15:58:18.602Z,16.10
2018-10-03T16:00:46.612Z,16.00
2018-10-03T16:03:14.588Z,16.00
2018-10-03T16:05:42.647Z,16.00
2018-10-03T16:08:10.604Z,15.90
2018-10-03T16:10:38.577Z,15.70
2018-10-03T16:13:07.049Z,15.60
2018-10-03T16:15:35.020Z,15.60
2018-10-03T16:18:03.013Z,15.50
2018-10-03T16:20:30.921Z,15.30
2018-10-03T16:22:58.892Z,15.10
2018-10-03T16:25:26.960Z,15.10
2018-10-03T16:27:54.876Z,15.00
2018-10-03T16:30:22.813Z,14.90
2018-10-03T16:32:50.729Z,14.90
2018-10-03T16:35:18.689Z,14.80
2018-10-03T16:37:46.692Z,14.80
2018-10-03T16:40:14.632Z,14.80
2018-10-03T16:42:42.525Z,14.70
2018-10-03T16:45:10.442Z,14.70
2018-10-03T16:47:38.399Z,14.60
2018-10-03T16:50:06.403Z,14.60
2018-10-03T16:52:34.304Z,14.60
2018-10-03T16:55:02.231Z,14.50
2018-10-03T16:57:30.273Z,14.50
2018-10-03T16:59:58.236Z,14.40
2018-10-03T17:02:26.167Z,14.20
2018-10-03T17:04:54.534Z,14.10
2018-10-03T17:07:22.457Z,14.20
2018-10-03T17:09:50.348Z,14.30
2018-10-03T17:12:18.249Z,14.10
2018-10-03T17:14:46.137Z,14.00
2018-10-03T17:17:14.078Z,14.00
2018-10-03T17:19:42.013Z,14.00
2018-10-03T17:22:09.953Z,13.90
2018-10-03T17:24:38.469Z,13.90
2018-10-03T17:27:06.552Z,13.90
2018-10-03T17:29:34.520Z,13.90
2018-10-03T17:32:02.514Z,13.80
2018-10-03T17:34:30.567Z,13.80
2018-10-03T17:36:58.508Z,13.80
2018-10-03T17:39:27.045Z,13.80
2018-10-03T17:41:55.023Z,13.80
2018-10-03T17:44:23.246Z,13.80
2018-10-03T17:46:52.797Z,13.80
2018-10-03T17:49:20.766Z,13.70
2018-10-03T17:51:48.715Z,13.70
2018-10-03T17:54:16.661Z,13.60
2018-10-03T17:56:44.573Z,13.60
2018-10-03T17:59:12.605Z,13.60
2018-10-03T18:01:42.806Z,13.50
2018-10-03T18:04:10.741Z,13.40
2018-10-03T18:06:38.659Z,13.40
2018-10-03T18:09:08.567Z,13.40
2018-10-03T18:11:36.449Z,13.40
2018-10-03T18:14:04.374Z,13.40
2018-10-03T18:16:32.257Z,13.40
2018-10-03T18:19:00.300Z,13.30
2018-10-03T18:21:28.163Z,13.30
2018-10-03T18:23:56.073Z,13.30
2018-10-03T18:26:24.061Z,13.20
2018-10-03T18:28:51.957Z,13.20
2018-10-03T18:31:19.953Z,13.10
2018-10-03T18:33:47.897Z,13.20
2018-10-03T18:36:15.948Z,13.30
2018-10-03T18:38:43.910Z,13.30
2018-10-03T18:41:11.857Z,13.20
2018-10-03T18:43:39.807Z,13.20
2018-10-03T18:46:07.826Z,13.10
2018-10-03T18:48:35.749Z,13.10
2018-10-03T18:51:03.698Z,13.00
2018-10-03T18:53:31.649Z,12.90
2018-10-03T18:55:59.639Z,12.70
2018-10-03T18:58:27.807Z,12.70
2018-10-03T19:00:55.714Z,12.60
2018-10-03T19:03:24.683Z,12.70
2018-10-03T19:05:52.820Z,12.70
2018-10-03T19:08:20.930Z,12.70
2018-10-03T19:10:48.968Z,12.70
2018-10-03T19:13:17.554Z,12.80
2018-10-03T19:15:48.424Z,12.70
2018-10-03T19:18:16.509Z,12.70
2018-10-03T19:20:44.417Z,12.70
2018-10-03T19:23:12.381Z,12.60
2018-10-03T19:25:40.322Z,12.50
2018-10-03T19:28:08.202Z,12.50
2018-10-03T19:30:36.078Z,12.60
2018-10-03T19:33:04.009Z,12.60
2018-10-03T19:35:31.974Z,12.60
2018-10-03T19:37:59.884Z,12.60
2018-10-03T19:40:27.860Z,12.70
2018-10-03T19:42:55.761Z,12.70
2018-10-03T19:45:23.658Z,12.60
2018-10-03T19:47:51.631Z,12.70
2018-10-03T19:50:19.533Z,12.70
2018-10-03T19:52:47.486Z,12.80
2018-10-03T19:55:15.417Z,12.80
2018-10-03T19:57:43.365Z,12.90
2018-10-03T20:00:11.283Z,12.80
2018-10-03T20:02:39.202Z,12.80
2018-10-03T20:05:07.152Z,12.70
2018-10-03T20:07:35.055Z,12.60
2018-10-03T20:10:03.274Z,12.60
2018-10-03T20:12:31.179Z,12.70
2018-10-03T20:14:59.097Z,12.70
2018-10-03T20:17:26.953Z,12.70
2018-10-03T20:19:54.897Z,12.60
2018-10-03T20:22:22.877Z,12.70
2018-10-03T20:24:50.856Z,12.60
2018-10-03T20:27:18.888Z,12.60
2018-10-03T20:29:46.818Z,12.60
2018-10-03T20:32:14.725Z,12.60
2018-10-03T20:34:42.650Z,12.60
2018-10-03T20:37:10.576Z,12.60
2018-10-03T20:39:38.507Z,12.70
2018-10-03T20:42:06.437Z,12.70
2018-10-03T20:44:34.400Z,12.50
2018-10-03T20:47:02.994Z,12.40
2018-10-03T20:49:30.871Z,12.30
2018-10-03T20:51:58.802Z,12.30
2018-10-03T20:54:26.774Z,12.30
2018-10-03T20:56:54.679Z,12.30
2018-10-03T20:59:22.619Z,12.20
2018-10-03T21:01:50.479Z,12.20
2018-10-03T21:04:18.481Z,12.10
2018-10-03T21:06:46.425Z,12.10
2018-10-03T21:09:14.363Z,12.10
2018-10-03T21:11:42.278Z,12.00
2018-10-03T21:14:10.147Z,12.00
2018-10-03T21:16:38.116Z,11.90
2018-10-03T21:19:06.398Z,11.80
2018-10-03T21:21:34.304Z,11.80
2018-10-03T21:24:02.242Z,11.80
2018-10-03T21:26:30.156Z,11.90
2018-10-03T21:28:58.059Z,11.90
2018-10-03T21:31:26.019Z,11.70
2018-10-03T21:33:53.933Z,11.70
2018-10-03T21:36:21.869Z,11.70
2018-10-03T21:38:49.741Z,11.70
2018-10-03T21:41:17.640Z,11.60
2018-10-03T21:43:45.591Z,11.50
2018-10-03T21:46:13.520Z,11.50
2018-10-03T21:48:41.410Z,11.50
2018-10-03T21:51:09.378Z,11.50
2018-10-03T21:53:37.268Z,11.50
2018-10-03T21:56:05.178Z,11.50
2018-10-03T21:58:33.120Z,11.60
2018-10-03T22:01:01.041Z,11.40
2018-10-03T22:03:28.921Z,11.50
2018-10-03T22:05:56.893Z,11.50
2018-10-03T22:08:24.826Z,11.60
2018-10-03T22:10:52.721Z,11.60
2018-10-03T22:13:20.653Z,11.60
2018-10-03T22:15:48.574Z,11.60
2018-10-03T22:18:16.468Z,11.60
2018-10-03T22:20:44.381Z,11.60
2018-10-03T22:23:12.372Z,11.60
2018-10-03T22:25:40.237Z,11.60
2018-10-03T22:28:08.169Z,11.50
2018-10-03T22:30:36.065Z,11.50
2018-10-03T22:33:03.949Z,11.50
2018-10-03T22:35:31.813Z,11.50
2018-10-03T22:37:59.731Z,11.50
2018-10-03T22:40:27.684Z,11.50
2018-10-03T22:42:55.597Z,11.40
2018-10-03T22:45:23.539Z,11.40
2018-10-03T22:47:51.476Z,11.40
2018-10-03T22:50:19.432Z,11.40
2018-10-03T22:52:47.349Z,11.40
2018-10-03T22:55:15.225Z,11.40
2018-10-03T22:57:43.173Z,11.30
2018-10-03T23:00:11.196Z,11.30
2018-10-03T23:02:39.134Z,11.30
2018-10-03T23:05:07.268Z,11.30
2018-10-03T23:07:35.359Z,11.30
2018-10-03T23:10:03.453Z,11.30
2018-10-03T23:12:31.368Z,11.30
2018-10-03T23:14:59.280Z,11.20
2018-10-03T23:17:27.240Z,11.20
2018-10-03T23:19:55.153Z,11.20
2018-10-03T23:22:23.125Z,11.10
2018-10-03T23:24:51.073Z,11.10
2018-10-03T23:27:19.004Z,11.10
2018-10-03T23:29:46.938Z,11.00
2018-10-03T23:32:14.955Z,11.00
2018-10-03T23:34:42.881Z,11.00
2018-10-03T23:37:10.785Z,11.00
2018-10-03T23:39:38.681Z,10.90
2018-10-03T23:42:06.770Z,11.00
2018-10-03T23:44:34.670Z,11.00
2018-10-03T23:47:02.684Z,11.00
2018-10-03T23:49:30.647Z,11.00
2018-10-03T23:54:33.214Z,11.00
2018-10-03T23:57:01.132Z,11.00
2018-10-03T23:59:29.034Z,10.90
